sensor_id;sensor_type;location;lat;lon;timestamp;P1;durP1;ratioP1;P2;durP2;ratioP2
25497;SDS011;13406;53.380;7.226;2023-03-14T00:01:31;24.80;;;5.53;;
25497;SDS011;13406;53.380;7.226;2023-03-14T00:03:56;28.63;;;6.27;;
25497;SDS011;13406;53.380;7.226;2023-03-14T00:06:22;21.33;;;6.03;;
25497;SDS011;13406;53.380;7.226;2023-03-14T00:08:47;23.80;;;5.70;;
25497;SDS011;13406;53.380;7.226;2023-03-14T00:11:14;20.63;;;5.80;;
25497;SDS011;13406;53.380;7.226;2023-03-14T00:13:40;37.97;;;5.77;;
25497;SDS011;13406;53.380;7.226;2023-03-14T00:16:06;20.67;;;5.50;;
25497;SDS011;13406;53.380;7.226;2023-03-14T00:18:31;20.43;;;5.37;;
25497;SDS011;13406;53.380;7.226;2023-03-14T00:20:58;21.93;;;6.20;;
25497;SDS011;13406;53.380;7.226;2023-03-14T00:23:23;19.40;;;5.50;;
25497;SDS011;13406;53.380;7.226;2023-03-14T00:25:48;26.03;;;6.40;;
25497;SDS011;13406;53.380;7.226;2023-03-14T00:28:13;19.13;;;4.93;;
25497;SDS011;13406;53.380;7.226;2023-03-14T00:30:39;25.13;;;5.57;;
25497;SDS011;13406;53.380;7.226;2023-03-14T00:33:04;19.33;;;5.00;;
25497;SDS011;13406;53.380;7.226;2023-03-14T00:35:29;23.10;;;5.40;;
25497;SDS011;13406;53.380;7.226;2023-03-14T00:37:54;23.30;;;6.07;;
25497;SDS011;13406;53.380;7.226;2023-03-14T00:40:20;22.87;;;6.03;;
25497;SDS011;13406;53.380;7.226;2023-03-14T00:42:45;22.43;;;6.43;;
25497;SDS011;13406;53.380;7.226;2023-03-14T00:45:10;20.03;;;5.40;;
25497;SDS011;13406;53.380;7.226;2023-03-14T00:47:35;26.80;;;6.37;;
25497;SDS011;13406;53.380;7.226;2023-03-14T00:50:01;19.73;;;5.33;;
25497;SDS011;13406;53.380;7.226;2023-03-14T00:52:26;26.13;;;5.00;;
25497;SDS011;13406;53.380;7.226;2023-03-14T00:54:51;25.53;;;5.10;;
25497;SDS011;13406;53.380;7.226;2023-03-14T00:57:17;21.23;;;4.83;;
25497;SDS011;13406;53.380;7.226;2023-03-14T00:59:42;20.73;;;4.10;;
25497;SDS011;13406;53.380;7.226;2023-03-14T01:02:07;21.40;;;4.90;;
25497;SDS011;13406;53.380;7.226;2023-03-14T01:04:32;19.90;;;4.83;;
25497;SDS011;13406;53.380;7.226;2023-03-14T01:06:58;24.37;;;4.73;;
25497;SDS011;13406;53.380;7.226;2023-03-14T01:09:23;17.43;;;4.97;;
25497;SDS011;13406;53.380;7.226;2023-03-14T01:11:48;20.90;;;4.73;;
25497;SDS011;13406;53.380;7.226;2023-03-14T01:14:14;26.13;;;5.27;;
25497;SDS011;13406;53.380;7.226;2023-03-14T01:16:39;18.67;;;4.80;;
25497;SDS011;13406;53.380;7.226;2023-03-14T01:19:04;30.23;;;6.00;;
25497;SDS011;13406;53.380;7.226;2023-03-14T01:21:34;19.07;;;3.77;;
25497;SDS011;13406;53.380;7.226;2023-03-14T01:23:59;25.50;;;6.80;;
25497;SDS011;13406;53.380;7.226;2023-03-14T01:26:26;16.60;;;3.83;;
25497;SDS011;13406;53.380;7.226;2023-03-14T01:28:53;22.60;;;5.33;;
25497;SDS011;13406;53.380;7.226;2023-03-14T01:31:18;18.30;;;5.10;;
25497;SDS011;13406;53.380;7.226;2023-03-14T01:33:44;19.20;;;5.30;;
25497;SDS011;13406;53.380;7.226;2023-03-14T01:36:10;21.27;;;4.77;;
25497;SDS011;13406;53.380;7.226;2023-03-14T01:38:36;17.63;;;5.13;;
25497;SDS011;13406;53.380;7.226;2023-03-14T01:41:01;20.77;;;4.70;;
25497;SDS011;13406;53.380;7.226;2023-03-14T01:43:27;20.83;;;4.57;;
25497;SDS011;13406;53.380;7.226;2023-03-14T01:48:37;27.00;;;6.27;;
25497;SDS011;13406;53.380;7.226;2023-03-14T01:51:03;14.90;;;4.07;;
25497;SDS011;13406;53.380;7.226;2023-03-14T01:53:29;17.37;;;4.10;;
25497;SDS011;13406;53.380;7.226;2023-03-14T01:55:55;14.03;;;4.10;;
25497;SDS011;13406;53.380;7.226;2023-03-14T01:58:21;18.43;;;4.93;;
25497;SDS011;13406;53.380;7.226;2023-03-14T02:00:47;19.33;;;4.50;;
25497;SDS011;13406;53.380;7.226;2023-03-14T02:03:14;15.57;;;4.33;;
25497;SDS011;13406;53.380;7.226;2023-03-14T02:05:41;13.50;;;4.57;;
25497;SDS011;13406;53.380;7.226;2023-03-14T02:08:08;24.00;;;5.03;;
25497;SDS011;13406;53.380;7.226;2023-03-14T02:10:41;21.03;;;4.37;;
25497;SDS011;13406;53.380;7.226;2023-03-14T02:13:07;16.47;;;4.40;;
25497;SDS011;13406;53.380;7.226;2023-03-14T02:15:32;10.70;;;3.83;;
25497;SDS011;13406;53.380;7.226;2023-03-14T02:17:58;17.63;;;4.60;;
25497;SDS011;13406;53.380;7.226;2023-03-14T02:22:54;15.00;;;4.97;;
25497;SDS011;13406;53.380;7.226;2023-03-14T02:27:45;17.30;;;4.70;;
25497;SDS011;13406;53.380;7.226;2023-03-14T02:30:13;22.17;;;4.40;;
25497;SDS011;13406;53.380;7.226;2023-03-14T02:32:40;17.77;;;4.13;;
25497;SDS011;13406;53.380;7.226;2023-03-14T02:35:08;18.33;;;4.23;;
25497;SDS011;13406;53.380;7.226;2023-03-14T02:37:48;16.73;;;3.60;;
25497;SDS011;13406;53.380;7.226;2023-03-14T02:40:14;18.90;;;3.63;;
25497;SDS011;13406;53.380;7.226;2023-03-14T02:42:39;16.83;;;3.13;;
25497;SDS011;13406;53.380;7.226;2023-03-14T02:47:29;13.00;;;3.07;;
25497;SDS011;13406;53.380;7.226;2023-03-14T02:50:06;16.43;;;4.23;;
25497;SDS011;13406;53.380;7.226;2023-03-14T02:52:33;13.80;;;3.27;;
25497;SDS011;13406;53.380;7.226;2023-03-14T02:54:58;10.40;;;3.00;;
25497;SDS011;13406;53.380;7.226;2023-03-14T02:57:23;14.83;;;2.80;;
25497;SDS011;13406;53.380;7.226;2023-03-14T02:59:49;15.20;;;3.60;;
25497;SDS011;13406;53.380;7.226;2023-03-14T03:02:14;16.77;;;3.23;;
25497;SDS011;13406;53.380;7.226;2023-03-14T03:04:39;12.23;;;2.90;;
25497;SDS011;13406;53.380;7.226;2023-03-14T03:07:05;13.87;;;2.97;;
25497;SDS011;13406;53.380;7.226;2023-03-14T03:09:30;17.63;;;3.50;;
25497;SDS011;13406;53.380;7.226;2023-03-14T03:11:55;13.07;;;2.47;;
25497;SDS011;13406;53.380;7.226;2023-03-14T03:14:20;8.07;;;1.97;;
25497;SDS011;13406;53.380;7.226;2023-03-14T03:16:46;16.57;;;3.50;;
25497;SDS011;13406;53.380;7.226;2023-03-14T03:19:11;11.67;;;2.70;;
25497;SDS011;13406;53.380;7.226;2023-03-14T03:21:38;7.50;;;2.17;;
25497;SDS011;13406;53.380;7.226;2023-03-14T03:24:03;8.57;;;2.57;;
25497;SDS011;13406;53.380;7.226;2023-03-14T03:26:29;10.23;;;3.10;;
25497;SDS011;13406;53.380;7.226;2023-03-14T03:28:54;14.00;;;2.73;;
25497;SDS011;13406;53.380;7.226;2023-03-14T03:31:19;9.73;;;2.80;;
25497;SDS011;13406;53.380;7.226;2023-03-14T03:33:44;12.57;;;3.20;;
25497;SDS011;13406;53.380;7.226;2023-03-14T03:36:10;9.30;;;2.33;;
25497;SDS011;13406;53.380;7.226;2023-03-14T03:38:35;11.20;;;2.40;;
25497;SDS011;13406;53.380;7.226;2023-03-14T03:41:04;6.10;;;1.80;;
25497;SDS011;13406;53.380;7.226;2023-03-14T03:43:30;12.60;;;2.90;;
25497;SDS011;13406;53.380;7.226;2023-03-14T03:45:55;5.90;;;1.80;;
25497;SDS011;13406;53.380;7.226;2023-03-14T03:48:21;11.97;;;2.80;;
25497;SDS011;13406;53.380;7.226;2023-03-14T03:50:46;7.63;;;2.13;;
25497;SDS011;13406;53.380;7.226;2023-03-14T03:53:12;9.40;;;2.60;;
25497;SDS011;13406;53.380;7.226;2023-03-14T03:55:39;11.03;;;2.47;;
25497;SDS011;13406;53.380;7.226;2023-03-14T03:58:05;9.27;;;2.63;;
25497;SDS011;13406;53.380;7.226;2023-03-14T04:00:30;11.63;;;2.97;;
25497;SDS011;13406;53.380;7.226;2023-03-14T04:02:57;9.77;;;2.90;;
25497;SDS011;13406;53.380;7.226;2023-03-14T04:05:23;10.57;;;2.80;;
25497;SDS011;13406;53.380;7.226;2023-03-14T04:07:48;11.40;;;3.60;;
25497;SDS011;13406;53.380;7.226;2023-03-14T04:10:14;10.53;;;3.30;;
25497;SDS011;13406;53.380;7.226;2023-03-14T04:12:39;12.50;;;3.33;;
25497;SDS011;13406;53.380;7.226;2023-03-14T04:15:05;14.93;;;4.00;;
25497;SDS011;13406;53.380;7.226;2023-03-14T04:17:30;16.33;;;4.00;;
25497;SDS011;13406;53.380;7.226;2023-03-14T04:19:55;16.87;;;4.47;;
25497;SDS011;13406;53.380;7.226;2023-03-14T04:22:21;12.10;;;3.37;;
25497;SDS011;13406;53.380;7.226;2023-03-14T04:24:46;12.93;;;3.83;;
25497;SDS011;13406;53.380;7.226;2023-03-14T04:27:11;14.03;;;4.03;;
25497;SDS011;13406;53.380;7.226;2023-03-14T04:29:36;12.37;;;4.10;;
25497;SDS011;13406;53.380;7.226;2023-03-14T04:32:02;9.07;;;3.20;;
25497;SDS011;13406;53.380;7.226;2023-03-14T04:34:27;12.47;;;3.60;;
25497;SDS011;13406;53.380;7.226;2023-03-14T04:36:52;12.07;;;3.30;;
25497;SDS011;13406;53.380;7.226;2023-03-14T04:39:17;14.33;;;4.73;;
25497;SDS011;13406;53.380;7.226;2023-03-14T04:41:44;14.60;;;3.50;;
25497;SDS011;13406;53.380;7.226;2023-03-14T04:44:09;9.20;;;3.17;;
25497;SDS011;13406;53.380;7.226;2023-03-14T04:46:34;11.90;;;3.50;;
25497;SDS011;13406;53.380;7.226;2023-03-14T04:48:59;12.63;;;3.07;;
25497;SDS011;13406;53.380;7.226;2023-03-14T04:51:25;10.57;;;3.47;;
25497;SDS011;13406;53.380;7.226;2023-03-14T04:53:52;12.73;;;3.93;;
25497;SDS011;13406;53.380;7.226;2023-03-14T04:56:17;8.90;;;3.47;;
25497;SDS011;13406;53.380;7.226;2023-03-14T04:58:42;11.27;;;3.20;;
25497;SDS011;13406;53.380;7.226;2023-03-14T05:01:09;13.90;;;3.70;;
25497;SDS011;13406;53.380;7.226;2023-03-14T05:03:34;16.73;;;4.00;;
25497;SDS011;13406;53.380;7.226;2023-03-14T05:06:01;16.03;;;3.57;;
25497;SDS011;13406;53.380;7.226;2023-03-14T05:08:26;10.33;;;3.50;;
25497;SDS011;13406;53.380;7.226;2023-03-14T05:10:53;13.93;;;4.00;;
25497;SDS011;13406;53.380;7.226;2023-03-14T05:13:18;17.07;;;3.70;;
25497;SDS011;13406;53.380;7.226;2023-03-14T05:15:43;8.10;;;3.50;;
25497;SDS011;13406;53.380;7.226;2023-03-14T05:18:09;9.87;;;3.60;;
25497;SDS011;13406;53.380;7.226;2023-03-14T05:20:34;9.63;;;3.77;;
25497;SDS011;13406;53.380;7.226;2023-03-14T05:23:00;9.20;;;3.77;;
25497;SDS011;13406;53.380;7.226;2023-03-14T05:25:25;9.93;;;4.00;;
25497;SDS011;13406;53.380;7.226;2023-03-14T05:27:53;10.10;;;3.53;;
25497;SDS011;13406;53.380;7.226;2023-03-14T05:30:18;8.57;;;3.30;;
25497;SDS011;13406;53.380;7.226;2023-03-14T05:32:43;10.00;;;3.93;;
25497;SDS011;13406;53.380;7.226;2023-03-14T05:35:08;9.80;;;3.47;;
25497;SDS011;13406;53.380;7.226;2023-03-14T05:37:34;10.47;;;3.60;;
25497;SDS011;13406;53.380;7.226;2023-03-14T05:39:59;11.87;;;3.93;;
25497;SDS011;13406;53.380;7.226;2023-03-14T05:42:24;13.00;;;4.87;;
25497;SDS011;13406;53.380;7.226;2023-03-14T05:44:50;13.97;;;4.73;;
25497;SDS011;13406;53.380;7.226;2023-03-14T05:47:15;16.07;;;4.20;;
25497;SDS011;13406;53.380;7.226;2023-03-14T05:49:40;12.00;;;4.63;;
25497;SDS011;13406;53.380;7.226;2023-03-14T05:52:06;10.27;;;3.93;;
25497;SDS011;13406;53.380;7.226;2023-03-14T05:54:31;9.30;;;3.90;;
25497;SDS011;13406;53.380;7.226;2023-03-14T05:56:56;10.47;;;3.47;;
25497;SDS011;13406;53.380;7.226;2023-03-14T05:59:21;13.77;;;4.60;;
25497;SDS011;13406;53.380;7.226;2023-03-14T06:01:47;8.97;;;3.60;;
25497;SDS011;13406;53.380;7.226;2023-03-14T06:04:12;8.77;;;3.73;;
25497;SDS011;13406;53.380;7.226;2023-03-14T06:06:38;7.97;;;3.70;;
25497;SDS011;13406;53.380;7.226;2023-03-14T06:09:04;16.30;;;4.27;;
25497;SDS011;13406;53.380;7.226;2023-03-14T06:11:29;9.30;;;4.30;;
25497;SDS011;13406;53.380;7.226;2023-03-14T06:13:54;9.33;;;4.23;;
25497;SDS011;13406;53.380;7.226;2023-03-14T06:16:19;8.57;;;5.17;;
25497;SDS011;13406;53.380;7.226;2023-03-14T06:18:45;12.70;;;4.13;;
25497;SDS011;13406;53.380;7.226;2023-03-14T06:21:12;15.90;;;4.40;;
25497;SDS011;13406;53.380;7.226;2023-03-14T06:23:37;12.17;;;5.70;;
25497;SDS011;13406;53.380;7.226;2023-03-14T06:26:02;11.50;;;4.67;;
25497;SDS011;13406;53.380;7.226;2023-03-14T06:28:28;9.30;;;4.27;;
25497;SDS011;13406;53.380;7.226;2023-03-14T06:30:53;10.67;;;4.40;;
25497;SDS011;13406;53.380;7.226;2023-03-14T06:33:18;14.60;;;4.70;;
25497;SDS011;13406;53.380;7.226;2023-03-14T06:35:43;9.07;;;4.00;;
25497;SDS011;13406;53.380;7.226;2023-03-14T06:38:09;10.93;;;4.40;;
25497;SDS011;13406;53.380;7.226;2023-03-14T06:40:34;6.13;;;4.20;;
25497;SDS011;13406;53.380;7.226;2023-03-14T06:42:59;6.50;;;3.03;;
25497;SDS011;13406;53.380;7.226;2023-03-14T06:45:25;7.13;;;3.17;;
25497;SDS011;13406;53.380;7.226;2023-03-14T06:47:50;6.00;;;2.77;;
25497;SDS011;13406;53.380;7.226;2023-03-14T06:50:15;7.00;;;2.60;;
25497;SDS011;13406;53.380;7.226;2023-03-14T06:52:40;8.37;;;2.60;;
25497;SDS011;13406;53.380;7.226;2023-03-14T06:55:11;8.40;;;2.93;;
25497;SDS011;13406;53.380;7.226;2023-03-14T06:57:36;3.67;;;1.80;;
25497;SDS011;13406;53.380;7.226;2023-03-14T07:00:02;6.80;;;2.53;;
25497;SDS011;13406;53.380;7.226;2023-03-14T07:02:28;7.60;;;1.87;;
25497;SDS011;13406;53.380;7.226;2023-03-14T07:04:53;4.00;;;1.17;;
25497;SDS011;13406;53.380;7.226;2023-03-14T07:07:19;7.70;;;1.50;;
25497;SDS011;13406;53.380;7.226;2023-03-14T07:09:44;9.67;;;2.00;;
25497;SDS011;13406;53.380;7.226;2023-03-14T07:12:09;7.80;;;1.57;;
25497;SDS011;13406;53.380;7.226;2023-03-14T07:14:34;8.33;;;2.07;;
25497;SDS011;13406;53.380;7.226;2023-03-14T07:17:00;9.10;;;2.00;;
25497;SDS011;13406;53.380;7.226;2023-03-14T07:19:25;9.93;;;2.00;;
25497;SDS011;13406;53.380;7.226;2023-03-14T07:21:50;9.60;;;2.80;;
25497;SDS011;13406;53.380;7.226;2023-03-14T07:24:16;10.57;;;2.00;;
25497;SDS011;13406;53.380;7.226;2023-03-14T07:26:41;12.87;;;2.20;;
25497;SDS011;13406;53.380;7.226;2023-03-14T07:29:06;10.27;;;1.97;;
25497;SDS011;13406;53.380;7.226;2023-03-14T07:31:31;9.50;;;1.80;;
25497;SDS011;13406;53.380;7.226;2023-03-14T07:33:57;7.50;;;1.23;;
25497;SDS011;13406;53.380;7.226;2023-03-14T07:36:22;8.37;;;1.67;;
25497;SDS011;13406;53.380;7.226;2023-03-14T07:38:48;9.23;;;1.73;;
25497;SDS011;13406;53.380;7.226;2023-03-14T07:41:13;7.80;;;2.07;;
25497;SDS011;13406;53.380;7.226;2023-03-14T07:43:39;8.07;;;1.13;;
25497;SDS011;13406;53.380;7.226;2023-03-14T07:46:04;5.10;;;0.93;;
25497;SDS011;13406;53.380;7.226;2023-03-14T07:48:30;7.03;;;1.20;;
25497;SDS011;13406;53.380;7.226;2023-03-14T07:50:55;2.70;;;0.80;;
25497;SDS011;13406;53.380;7.226;2023-03-14T07:53:20;2.03;;;0.60;;
25497;SDS011;13406;53.380;7.226;2023-03-14T07:55:46;2.83;;;0.70;;
25497;SDS011;13406;53.380;7.226;2023-03-14T07:58:12;1.60;;;0.70;;
25497;SDS011;13406;53.380;7.226;2023-03-14T08:00:38;2.30;;;0.67;;
25497;SDS011;13406;53.380;7.226;2023-03-14T08:03:03;1.30;;;0.53;;
25497;SDS011;13406;53.380;7.226;2023-03-14T08:05:28;1.90;;;0.60;;
25497;SDS011;13406;53.380;7.226;2023-03-14T08:07:54;3.80;;;0.70;;
25497;SDS011;13406;53.380;7.226;2023-03-14T08:10:19;1.03;;;0.60;;
25497;SDS011;13406;53.380;7.226;2023-03-14T08:12:57;4.20;;;0.90;;
25497;SDS011;13406;53.380;7.226;2023-03-14T08:15:23;4.33;;;1.33;;
25497;SDS011;13406;53.380;7.226;2023-03-14T08:17:48;3.50;;;0.77;;
25497;SDS011;13406;53.380;7.226;2023-03-14T08:20:17;3.87;;;0.90;;
25497;SDS011;13406;53.380;7.226;2023-03-14T08:22:43;3.33;;;0.80;;
25497;SDS011;13406;53.380;7.226;2023-03-14T08:25:08;2.43;;;0.77;;
25497;SDS011;13406;53.380;7.226;2023-03-14T08:27:33;2.27;;;0.80;;
25497;SDS011;13406;53.380;7.226;2023-03-14T08:29:59;2.30;;;0.83;;
25497;SDS011;13406;53.380;7.226;2023-03-14T08:32:24;4.27;;;0.80;;
25497;SDS011;13406;53.380;7.226;2023-03-14T08:34:49;2.13;;;0.73;;
25497;SDS011;13406;53.380;7.226;2023-03-14T08:37:15;3.67;;;0.90;;
25497;SDS011;13406;53.380;7.226;2023-03-14T08:39:40;2.37;;;0.67;;
25497;SDS011;13406;53.380;7.226;2023-03-14T08:42:05;3.60;;;0.70;;
25497;SDS011;13406;53.380;7.226;2023-03-14T08:44:31;2.40;;;0.97;;
25497;SDS011;13406;53.380;7.226;2023-03-14T08:46:56;4.60;;;0.90;;
25497;SDS011;13406;53.380;7.226;2023-03-14T08:49:21;6.30;;;1.20;;
25497;SDS011;13406;53.380;7.226;2023-03-14T08:51:47;3.97;;;1.90;;
25497;SDS011;13406;53.380;7.226;2023-03-14T08:54:12;4.60;;;0.90;;
25497;SDS011;13406;53.380;7.226;2023-03-14T08:56:37;3.83;;;1.03;;
25497;SDS011;13406;53.380;7.226;2023-03-14T08:59:03;3.83;;;1.13;;
25497;SDS011;13406;53.380;7.226;2023-03-14T09:01:28;7.00;;;1.50;;
25497;SDS011;13406;53.380;7.226;2023-03-14T09:03:53;8.57;;;1.20;;
25497;SDS011;13406;53.380;7.226;2023-03-14T09:06:19;4.27;;;0.97;;
25497;SDS011;13406;53.380;7.226;2023-03-14T09:08:44;6.20;;;1.17;;
25497;SDS011;13406;53.380;7.226;2023-03-14T09:11:10;9.20;;;2.07;;
25497;SDS011;13406;53.380;7.226;2023-03-14T09:13:36;7.83;;;2.00;;
25497;SDS011;13406;53.380;7.226;2023-03-14T09:16:01;8.73;;;1.70;;
25497;SDS011;13406;53.380;7.226;2023-03-14T09:18:26;9.63;;;1.83;;
25497;SDS011;13406;53.380;7.226;2023-03-14T09:20:52;8.37;;;3.30;;
25497;SDS011;13406;53.380;7.226;2023-03-14T09:23:17;6.53;;;1.80;;
25497;SDS011;13406;53.380;7.226;2023-03-14T09:25:42;12.60;;;2.13;;
25497;SDS011;13406;53.380;7.226;2023-03-14T09:28:08;13.80;;;2.13;;
25497;SDS011;13406;53.380;7.226;2023-03-14T09:30:33;16.10;;;2.27;;
25497;SDS011;13406;53.380;7.226;2023-03-14T09:32:58;9.27;;;2.30;;
25497;SDS011;13406;53.380;7.226;2023-03-14T09:35:24;12.20;;;2.47;;
25497;SDS011;13406;53.380;7.226;2023-03-14T09:37:49;8.30;;;2.50;;
25497;SDS011;13406;53.380;7.226;2023-03-14T09:40:15;8.13;;;2.03;;
25497;SDS011;13406;53.380;7.226;2023-03-14T09:42:41;12.50;;;2.50;;
25497;SDS011;13406;53.380;7.226;2023-03-14T09:45:10;12.67;;;2.70;;
25497;SDS011;13406;53.380;7.226;2023-03-14T09:47:36;15.63;;;2.70;;
25497;SDS011;13406;53.380;7.226;2023-03-14T09:50:02;16.87;;;3.10;;
25497;SDS011;13406;53.380;7.226;2023-03-14T09:52:32;18.20;;;5.40;;
25497;SDS011;13406;53.380;7.226;2023-03-14T09:55:04;20.03;;;3.83;;
25497;SDS011;13406;53.380;7.226;2023-03-14T09:57:32;16.27;;;3.40;;
25497;SDS011;13406;53.380;7.226;2023-03-14T10:00:00;13.50;;;2.90;;
25497;SDS011;13406;53.380;7.226;2023-03-14T10:02:34;17.60;;;3.20;;
25497;SDS011;13406;53.380;7.226;2023-03-14T10:05:00;17.13;;;3.10;;
25497;SDS011;13406;53.380;7.226;2023-03-14T10:07:27;18.93;;;3.73;;
25497;SDS011;13406;53.380;7.226;2023-03-14T10:09:53;12.37;;;2.73;;
25497;SDS011;13406;53.380;7.226;2023-03-14T10:12:18;12.50;;;3.23;;
25497;SDS011;13406;53.380;7.226;2023-03-14T10:14:48;14.47;;;3.90;;
25497;SDS011;13406;53.380;7.226;2023-03-14T10:17:14;18.17;;;3.60;;
25497;SDS011;13406;53.380;7.226;2023-03-14T10:22:36;10.00;;;2.93;;
25497;SDS011;13406;53.380;7.226;2023-03-14T10:25:03;17.00;;;3.57;;
25497;SDS011;13406;53.380;7.226;2023-03-14T10:27:30;12.77;;;3.10;;
25497;SDS011;13406;53.380;7.226;2023-03-14T10:29:57;10.40;;;2.37;;
25497;SDS011;13406;53.380;7.226;2023-03-14T10:32:28;12.73;;;2.90;;
25497;SDS011;13406;53.380;7.226;2023-03-14T10:35:05;13.47;;;2.57;;
25497;SDS011;13406;53.380;7.226;2023-03-14T10:37:30;15.63;;;3.00;;
25497;SDS011;13406;53.380;7.226;2023-03-14T10:39:58;19.53;;;3.90;;
25497;SDS011;13406;53.380;7.226;2023-03-14T10:42:24;11.37;;;3.13;;
25497;SDS011;13406;53.380;7.226;2023-03-14T10:44:57;17.70;;;3.80;;
25497;SDS011;13406;53.380;7.226;2023-03-14T10:47:24;20.57;;;2.73;;
25497;SDS011;13406;53.380;7.226;2023-03-14T10:49:50;20.83;;;3.13;;
25497;SDS011;13406;53.380;7.226;2023-03-14T10:52:19;12.10;;;2.83;;
25497;SDS011;13406;53.380;7.226;2023-03-14T10:54:48;18.80;;;3.03;;
25497;SDS011;13406;53.380;7.226;2023-03-14T10:57:13;9.27;;;2.60;;
25497;SDS011;13406;53.380;7.226;2023-03-14T10:59:39;14.20;;;2.50;;
25497;SDS011;13406;53.380;7.226;2023-03-14T11:02:13;11.00;;;2.43;;
25497;SDS011;13406;53.380;7.226;2023-03-14T11:14:59;8.93;;;2.20;;
25497;SDS011;13406;53.380;7.226;2023-03-14T11:24:49;7.10;;;1.83;;
25497;SDS011;13406;53.380;7.226;2023-03-14T11:27:22;9.27;;;2.20;;
25497;SDS011;13406;53.380;7.226;2023-03-14T11:29:55;11.43;;;2.20;;
25497;SDS011;13406;53.380;7.226;2023-03-14T11:35:16;9.50;;;1.80;;
25497;SDS011;13406;53.380;7.226;2023-03-14T11:37:51;5.40;;;1.67;;
25497;SDS011;13406;53.380;7.226;2023-03-14T11:40:21;5.90;;;1.63;;
25497;SDS011;13406;53.380;7.226;2023-03-14T11:42:53;4.97;;;1.57;;
25497;SDS011;13406;53.380;7.226;2023-03-14T11:45:21;6.67;;;1.60;;
25497;SDS011;13406;53.380;7.226;2023-03-14T11:47:53;9.90;;;2.17;;
25497;SDS011;13406;53.380;7.226;2023-03-14T11:50:23;6.87;;;1.70;;
25497;SDS011;13406;53.380;7.226;2023-03-14T11:52:56;6.90;;;1.93;;
25497;SDS011;13406;53.380;7.226;2023-03-14T11:55:28;5.70;;;1.53;;
25497;SDS011;13406;53.380;7.226;2023-03-14T11:57:58;6.40;;;1.87;;
25497;SDS011;13406;53.380;7.226;2023-03-14T12:00:25;5.90;;;1.40;;
25497;SDS011;13406;53.380;7.226;2023-03-14T12:11:34;2.90;;;1.23;;
25497;SDS011;13406;53.380;7.226;2023-03-14T12:13:39;9.10;;;1.90;;
25497;SDS011;13406;53.380;7.226;2023-03-14T12:16:19;8.60;;;2.10;;
25497;SDS011;13406;53.380;7.226;2023-03-14T12:18:49;7.90;;;1.63;;
25497;SDS011;13406;53.380;7.226;2023-03-14T12:21:14;7.97;;;2.07;;
25497;SDS011;13406;53.380;7.226;2023-03-14T12:23:44;6.80;;;2.33;;
25497;SDS011;13406;53.380;7.226;2023-03-14T12:28:38;5.73;;;1.50;;
25497;SDS011;13406;53.380;7.226;2023-03-14T12:33:48;6.30;;;1.53;;
25497;SDS011;13406;53.380;7.226;2023-03-14T12:36:21;7.30;;;2.10;;
25497;SDS011;13406;53.380;7.226;2023-03-14T12:41:46;6.20;;;1.70;;
25497;SDS011;13406;53.380;7.226;2023-03-14T12:46:53;7.67;;;1.77;;
25497;SDS011;13406;53.380;7.226;2023-03-14T12:49:19;10.77;;;2.00;;
25497;SDS011;13406;53.380;7.226;2023-03-14T12:51:44;5.93;;;1.87;;
25497;SDS011;13406;53.380;7.226;2023-03-14T12:56:53;7.30;;;1.53;;
25497;SDS011;13406;53.380;7.226;2023-03-14T13:04:47;5.20;;;1.47;;
25497;SDS011;13406;53.380;7.226;2023-03-14T13:07:12;8.20;;;2.43;;
25497;SDS011;13406;53.380;7.226;2023-03-14T13:09:54;15.70;;;1.90;;
25497;SDS011;13406;53.380;7.226;2023-03-14T13:12:23;10.23;;;1.33;;
25497;SDS011;13406;53.380;7.226;2023-03-14T13:14:52;7.50;;;1.70;;
25497;SDS011;13406;53.380;7.226;2023-03-14T13:17:26;8.23;;;2.00;;
25497;SDS011;13406;53.380;7.226;2023-03-14T13:19:55;6.53;;;1.83;;
25497;SDS011;13406;53.380;7.226;2023-03-14T13:22:26;8.93;;;2.00;;
25497;SDS011;13406;53.380;7.226;2023-03-14T13:25:13;12.80;;;1.97;;
25497;SDS011;13406;53.380;7.226;2023-03-14T13:27:37;7.70;;;1.50;;
25497;SDS011;13406;53.380;7.226;2023-03-14T13:31:03;7.80;;;2.07;;
25497;SDS011;13406;53.380;7.226;2023-03-14T13:32:57;8.87;;;1.87;;
25497;SDS011;13406;53.380;7.226;2023-03-14T13:35:29;5.87;;;1.50;;
25497;SDS011;13406;53.380;7.226;2023-03-14T13:37:55;12.67;;;2.00;;
25497;SDS011;13406;53.380;7.226;2023-03-14T13:40:25;6.00;;;1.70;;
25497;SDS011;13406;53.380;7.226;2023-03-14T13:42:59;7.67;;;3.00;;
25497;SDS011;13406;53.380;7.226;2023-03-14T13:45:24;10.03;;;1.80;;
25497;SDS011;13406;53.380;7.226;2023-03-14T13:47:51;8.20;;;1.70;;
25497;SDS011;13406;53.380;7.226;2023-03-14T13:50:16;7.37;;;1.47;;
25497;SDS011;13406;53.380;7.226;2023-03-14T13:52:42;7.90;;;1.57;;
25497;SDS011;13406;53.380;7.226;2023-03-14T13:55:14;4.73;;;1.43;;
25497;SDS011;13406;53.380;7.226;2023-03-14T13:57:47;6.37;;;1.53;;
25497;SDS011;13406;53.380;7.226;2023-03-14T14:00:19;15.70;;;2.23;;
25497;SDS011;13406;53.380;7.226;2023-03-14T14:02:45;6.07;;;1.63;;
25497;SDS011;13406;53.380;7.226;2023-03-14T14:05:11;8.80;;;1.83;;
25497;SDS011;13406;53.380;7.226;2023-03-14T14:07:36;6.57;;;1.93;;
25497;SDS011;13406;53.380;7.226;2023-03-14T14:10:03;11.33;;;1.77;;
25497;SDS011;13406;53.380;7.226;2023-03-14T14:12:30;13.60;;;1.80;;
25497;SDS011;13406;53.380;7.226;2023-03-14T14:20:07;8.00;;;1.60;;
25497;SDS011;13406;53.380;7.226;2023-03-14T14:22:33;7.60;;;2.00;;
25497;SDS011;13406;53.380;7.226;2023-03-14T14:24:59;4.73;;;1.37;;
25497;SDS011;13406;53.380;7.226;2023-03-14T14:27:29;10.17;;;1.83;;
25497;SDS011;13406;53.380;7.226;2023-03-14T14:30:42;5.53;;;2.50;;
25497;SDS011;13406;53.380;7.226;2023-03-14T14:32:49;9.37;;;1.33;;
25497;SDS011;13406;53.380;7.226;2023-03-14T14:35:22;5.53;;;1.47;;
25497;SDS011;13406;53.380;7.226;2023-03-14T14:37:47;8.80;;;1.97;;
25497;SDS011;13406;53.380;7.226;2023-03-14T14:40:17;4.67;;;1.27;;
25497;SDS011;13406;53.380;7.226;2023-03-14T14:42:43;4.33;;;1.30;;
25497;SDS011;13406;53.380;7.226;2023-03-14T14:45:24;4.50;;;1.20;;
25497;SDS011;13406;53.380;7.226;2023-03-14T14:48:02;5.00;;;1.67;;
25497;SDS011;13406;53.380;7.226;2023-03-14T14:53:17;10.03;;;1.67;;
25497;SDS011;13406;53.380;7.226;2023-03-14T14:55:44;7.33;;;2.73;;
25497;SDS011;13406;53.380;7.226;2023-03-14T15:00:56;9.13;;;1.70;;
25497;SDS011;13406;53.380;7.226;2023-03-14T15:03:21;6.43;;;1.77;;
25497;SDS011;13406;53.380;7.226;2023-03-14T15:05:46;12.27;;;1.50;;
25497;SDS011;13406;53.380;7.226;2023-03-14T15:08:12;5.30;;;1.40;;
25497;SDS011;13406;53.380;7.226;2023-03-14T15:10:37;7.97;;;1.93;;
25497;SDS011;13406;53.380;7.226;2023-03-14T15:13:03;9.00;;;2.20;;
25497;SDS011;13406;53.380;7.226;2023-03-14T15:15:28;9.50;;;1.63;;
25497;SDS011;13406;53.380;7.226;2023-03-14T15:17:53;4.20;;;1.17;;
25497;SDS011;13406;53.380;7.226;2023-03-14T15:20:19;10.70;;;2.00;;
25497;SDS011;13406;53.380;7.226;2023-03-14T15:22:45;7.60;;;1.97;;
25497;SDS011;13406;53.380;7.226;2023-03-14T15:25:10;6.30;;;1.33;;
25497;SDS011;13406;53.380;7.226;2023-03-14T15:27:36;6.60;;;1.60;;
25497;SDS011;13406;53.380;7.226;2023-03-14T15:30:08;10.13;;;1.80;;
25497;SDS011;13406;53.380;7.226;2023-03-14T15:32:34;6.27;;;1.57;;
25497;SDS011;13406;53.380;7.226;2023-03-14T15:34:59;7.80;;;1.53;;
25497;SDS011;13406;53.380;7.226;2023-03-14T15:37:25;5.57;;;2.00;;
25497;SDS011;13406;53.380;7.226;2023-03-14T15:39:50;8.43;;;1.90;;
25497;SDS011;13406;53.380;7.226;2023-03-14T15:42:15;4.80;;;1.30;;
25497;SDS011;13406;53.380;7.226;2023-03-14T15:44:41;9.20;;;1.87;;
25497;SDS011;13406;53.380;7.226;2023-03-14T15:47:06;6.03;;;1.67;;
25497;SDS011;13406;53.380;7.226;2023-03-14T15:49:32;9.90;;;2.10;;